Tutoia, Brazil
Current Conditions -  °F | °C
As of 8:00 AM on Monday 22 Dec 2014 (Local Time) from SBPB Reporting Station
Clear Clear  
Wind Chill: 86°   Ceiling: Unl
Heat Index: 93°   Visibility: 6mi
Dew Point: 73°   Wind: 25mph
Humidity: 66%   Direction: 100°E
Pressure: 29.88"   Gusts: NA
Location:  2.76°S, 42.27°W
Report Text: SBPB 221100Z 10022KT CAVOK 30/23 Q1012
Loading
Personal Weather Stations






























Interactive Weather Map New forecast layout! Learn more

10-Day Weather Forecast

Advertisements
Track Severe Weather on mobile